Time;durP1;ratioP1;P1;durP2;ratioP2;P2;SDS_P1;SDS_P2;PMS_P1;PMS_P2;Temp;Humidity;BMP_temperature;BMP_pressure;BME280_temperature;BME280_humidity;BME280_pressure;Samples;Min_cycle;Max_cycle;Signal;HPM_P1;HPM_P2
2023/09/09 00:02:29;;;;;;;6.07;2.63;;;;;;;-140.66;100.00;55571.53;5115034;28;20096;-72
2023/09/09 00:05:14;;;;;;;9.18;3.25;;;;;;;-140.66;100.00;55571.53;5115919;28;20080;-72
2023/09/09 00:08:00;;;;;;;5.70;2.50;;;;;;;-140.66;100.00;55571.53;5116010;28;20095;-72
2023/09/09 00:10:46;;;;;;;9.15;2.88;;;;;;;-140.66;100.00;55571.53;5114552;28;20024;-71
2023/09/09 00:13:32;;;;;;;9.02;2.72;;;;;;;-140.66;100.00;55571.53;5115840;28;20036;-72
2023/09/09 00:16:18;;;;;;;5.97;3.10;;;;;;;-140.66;100.00;55571.53;5100580;28;20012;-71
2023/09/09 00:19:05;;;;;;;7.65;3.10;;;;;;;-140.66;100.00;55571.53;5100187;28;20034;-72
2023/09/09 00:21:50;;;;;;;9.30;2.88;;;;;;;-140.66;100.00;55571.53;5115626;28;20031;-71
2023/09/09 00:24:36;;;;;;;8.02;2.70;;;;;;;-140.66;100.00;55571.53;5116163;28;20039;-71
2023/09/09 00:27:22;;;;;;;6.80;2.67;;;;;;;-140.66;100.00;55571.53;5115198;28;20039;-71
2023/09/09 00:30:08;;;;;;;7.30;2.83;;;;;;;-140.66;100.00;55571.53;5115330;28;20026;-71
2023/09/09 00:32:54;;;;;;;5.38;2.95;;;;;;;-140.66;100.00;55571.53;5114371;28;20027;-71
2023/09/09 00:35:40;;;;;;;6.28;2.63;;;;;;;-140.66;100.00;55571.53;5114134;28;20447;-71
2023/09/09 00:38:25;;;;;;;4.05;2.75;;;;;;;-140.66;100.00;55571.53;5115474;28;20039;-72
2023/09/09 00:41:18;;;;;;;9.40;3.05;;;;;;;-140.66;100.00;55571.53;5116166;28;20023;-72
2023/09/09 00:44:04;;;;;;;9.80;2.95;;;;;;;-140.66;100.00;55571.53;5115076;28;20485;-71
2023/09/09 00:46:51;;;;;;;10.68;3.38;;;;;;;-140.66;100.00;55571.53;5100645;28;20099;-71
2023/09/09 00:49:37;;;;;;;4.95;2.78;;;;;;;-140.66;100.00;55571.53;5115248;28;20066;-71
2023/09/09 00:52:23;;;;;;;6.80;2.75;;;;;;;-140.66;100.00;55571.53;5115369;28;20055;-72
2023/09/09 00:55:13;;;;;;;7.95;2.38;;;;;;;-140.66;100.00;55571.53;5099221;28;20437;-72
2023/09/09 00:57:59;;;;;;;4.10;2.80;;;;;;;-140.66;100.00;55571.53;5115894;28;20128;-72
2023/09/09 01:00:46;;;;;;;7.15;3.17;;;;;;;-140.66;100.00;55571.53;5115983;28;20051;-72
2023/09/09 01:03:32;;;;;;;3.72;2.50;;;;;;;-140.66;100.00;55571.53;5115664;28;20441;-71
2023/09/09 01:06:22;;;;;;;6.93;2.95;;;;;;;-140.66;100.00;55571.53;5115069;28;20043;-73
2023/09/09 01:09:08;;;;;;;7.03;3.00;;;;;;;-140.66;100.00;55571.53;5115950;28;20073;-70
2023/09/09 01:11:54;;;;;;;5.68;3.08;;;;;;;-140.66;100.00;55571.53;5115416;28;20058;-72
2023/09/09 01:14:41;;;;;;;9.05;2.80;;;;;;;-140.66;100.00;55571.53;5115166;28;20489;-72
2023/09/09 01:17:26;;;;;;;8.20;2.72;;;;;;;-140.66;100.00;55571.53;5099851;28;20478;-72
2023/09/09 01:20:14;;;;;;;7.78;3.00;;;;;;;-140.66;100.00;55571.53;5115999;28;20031;-71
2023/09/09 01:23:00;;;;;;;7.55;2.83;;;;;;;-140.66;100.00;55571.53;5099190;28;20439;-70
2023/09/09 01:25:45;;;;;;;8.52;2.70;;;;;;;-140.66;100.00;55571.53;5112958;28;20035;-72
2023/09/09 01:28:31;;;;;;;6.07;2.72;;;;;;;-140.66;100.00;55571.53;5114817;28;20056;-71
2023/09/09 01:31:17;;;;;;;12.15;2.70;;;;;;;-140.66;100.00;55571.53;5113297;28;20016;-71
2023/09/09 01:34:03;;;;;;;5.97;2.60;;;;;;;-140.66;100.00;55571.53;5113593;28;20368;-71
2023/09/09 01:36:49;;;;;;;13.35;3.28;;;;;;;-140.66;100.00;55571.53;5114299;28;20034;-71
2023/09/09 01:39:34;;;;;;;7.60;2.72;;;;;;;-140.66;100.00;55571.53;5114273;28;20097;-72
2023/09/09 01:42:20;;;;;;;7.20;3.08;;;;;;;-140.66;100.00;55571.53;5113994;28;20357;-72
2023/09/09 01:45:07;;;;;;;11.10;3.35;;;;;;;-140.66;100.00;55571.53;5113527;28;20044;-72
2023/09/09 01:47:52;;;;;;;8.23;3.10;;;;;;;-140.66;100.00;55571.53;5114576;28;20069;-72
2023/09/09 01:50:38;;;;;;;7.00;3.00;;;;;;;-140.66;100.00;55571.53;5100000;28;20035;-71
2023/09/09 01:53:24;;;;;;;9.13;3.72;;;;;;;-140.66;100.00;55571.53;5113262;28;20322;-71
2023/09/09 01:56:09;;;;;;;13.30;3.45;;;;;;;-140.66;100.00;55571.53;5112745;28;20034;-71
2023/09/09 01:58:55;;;;;;;10.40;3.90;;;;;;;-140.66;100.00;55571.53;5114040;28;20437;-72
2023/09/09 02:01:41;;;;;;;9.32;3.28;;;;;;;-140.66;100.00;55571.53;5113392;28;20435;-71
2023/09/09 02:04:27;;;;;;;12.30;3.65;;;;;;;-140.66;100.00;55571.53;5112857;28;20034;-72
2023/09/09 02:07:12;;;;;;;10.88;3.35;;;;;;;-140.66;100.00;55571.53;5112465;28;20055;-71
2023/09/09 02:09:58;;;;;;;12.48;3.70;;;;;;;-140.66;100.00;55571.53;5115060;28;20490;-72
2023/09/09 02:12:44;;;;;;;9.90;3.45;;;;;;;-140.66;100.00;55571.53;5114160;28;20057;-71
2023/09/09 02:15:29;;;;;;;6.38;3.28;;;;;;;-140.66;100.00;55571.53;5112808;28;20024;-72
2023/09/09 02:18:15;;;;;;;8.40;3.20;;;;;;;-140.66;100.00;55571.53;5114227;28;20028;-71
2023/09/09 02:21:01;;;;;;;9.55;3.70;;;;;;;-140.66;100.00;55571.53;5114657;28;20028;-71
2023/09/09 02:23:47;;;;;;;13.93;4.07;;;;;;;-140.66;100.00;55571.53;5098772;28;20364;-71
2023/09/09 02:26:33;;;;;;;22.00;4.15;;;;;;;-140.66;100.00;55571.53;5113605;28;20018;-71
2023/09/09 02:29:18;;;;;;;15.70;4.15;;;;;;;-140.66;100.00;55571.53;5113755;28;20027;-72
2023/09/09 02:32:04;;;;;;;12.05;3.85;;;;;;;-140.66;100.00;55571.53;5113766;28;20114;-71
2023/09/09 02:34:50;;;;;;;11.10;3.70;;;;;;;-140.66;100.00;55571.53;5113070;28;20041;-72
2023/09/09 02:37:36;;;;;;;9.52;3.70;;;;;;;-140.66;100.00;55571.53;5112730;28;20107;-72
2023/09/09 02:40:22;;;;;;;8.32;4.00;;;;;;;-140.66;100.00;55571.53;5113616;28;20515;-72
2023/09/09 02:43:07;;;;;;;8.38;3.90;;;;;;;-140.66;100.00;55571.53;5113322;28;20104;-72
2023/09/09 02:45:53;;;;;;;14.98;4.45;;;;;;;-140.66;100.00;55571.53;5116272;28;20047;-72
2023/09/09 02:48:39;;;;;;;18.98;4.57;;;;;;;-140.66;100.00;55571.53;5117619;28;20081;-72
2023/09/09 02:51:25;;;;;;;11.80;4.18;;;;;;;-140.66;100.00;55571.53;5103217;28;20027;-71
2023/09/09 02:54:11;;;;;;;7.97;4.05;;;;;;;-140.66;100.00;55571.53;5102575;28;20016;-71
2023/09/09 02:56:57;;;;;;;10.95;4.13;;;;;;;-140.66;100.00;55571.53;5116883;28;20020;-72
2023/09/09 02:59:42;;;;;;;12.48;4.15;;;;;;;-140.66;100.00;55571.53;5116965;28;20114;-72
2023/09/09 03:02:28;;;;;;;10.25;4.15;;;;;;;-140.66;100.00;55571.53;5117472;28;20051;-72
2023/09/09 03:05:14;;;;;;;9.10;4.50;;;;;;;-140.66;100.00;55571.53;5102319;28;20123;-72
2023/09/09 03:08:00;;;;;;;9.55;3.67;;;;;;;-140.66;100.00;55571.53;5117334;28;20038;-72
2023/09/09 03:10:45;;;;;;;10.60;4.13;;;;;;;-140.66;100.00;55571.53;5117666;28;20032;-71
2023/09/09 03:13:31;;;;;;;8.90;3.97;;;;;;;-140.66;100.00;55571.53;5116994;28;20023;-72
2023/09/09 03:16:17;;;;;;;9.20;4.10;;;;;;;-140.66;100.00;55571.53;5117721;28;20093;-71
2023/09/09 03:19:03;;;;;;;8.93;3.67;;;;;;;-140.66;100.00;55571.53;5116068;28;20031;-71
2023/09/09 03:21:48;;;;;;;9.27;3.80;;;;;;;-140.66;100.00;55571.53;5104085;28;20423;-71
2023/09/09 03:24:34;;;;;;;14.07;4.10;;;;;;;-140.66;100.00;55571.53;5116713;28;20024;-71
2023/09/09 03:27:21;;;;;;;12.38;4.22;;;;;;;-140.66;100.00;55571.53;5115905;28;20135;-72
2023/09/09 03:30:09;;;;;;;12.82;4.38;;;;;;;-140.66;100.00;55571.53;5116895;28;20033;-73
2023/09/09 03:32:56;;;;;;;15.52;4.43;;;;;;;-140.66;100.00;55571.53;5116386;28;20051;-71
2023/09/09 03:35:41;;;;;;;8.88;3.78;;;;;;;-140.66;100.00;55571.53;5116348;28;20077;-72
2023/09/09 03:38:27;;;;;;;9.63;3.70;;;;;;;-140.66;100.00;55571.53;5117121;28;20023;-72
2023/09/09 03:41:13;;;;;;;10.00;3.90;;;;;;;-140.66;100.00;55571.53;5116851;28;20034;-72
2023/09/09 03:43:59;;;;;;;10.27;3.70;;;;;;;-140.66;100.00;55571.53;5116611;28;20375;-71
2023/09/09 03:46:44;;;;;;;7.32;3.80;;;;;;;-140.66;100.00;55571.53;5116739;28;20030;-71
2023/09/09 03:49:30;;;;;;;11.50;4.35;;;;;;;-140.66;100.00;55571.53;5116609;28;20028;-72
2023/09/09 03:52:16;;;;;;;8.50;3.80;;;;;;;-140.66;100.00;55571.53;5115500;28;20054;-72
2023/09/09 03:55:02;;;;;;;10.57;4.15;;;;;;;-140.66;100.00;55571.53;5102041;28;20030;-72
2023/09/09 03:57:47;;;;;;;12.07;4.15;;;;;;;-140.66;100.00;55571.53;5116670;28;20023;-71
2023/09/09 04:00:33;;;;;;;10.15;4.05;;;;;;;-140.66;100.00;55571.53;5115074;28;20024;-72
2023/09/09 04:03:19;;;;;;;11.85;3.30;;;;;;;-140.66;100.00;55571.53;5116708;28;20028;-72
2023/09/09 04:06:09;;;;;;;10.85;3.92;;;;;;;-140.66;100.00;55571.53;5116574;28;20039;-71
2023/09/09 04:08:56;;;;;;;8.60;3.83;;;;;;;-140.66;100.00;55571.53;5114996;28;20480;-71
2023/09/09 04:11:42;;;;;;;12.48;3.78;;;;;;;-140.66;100.00;55571.53;5115926;28;20119;-71
2023/09/09 04:14:28;;;;;;;16.00;3.95;;;;;;;-140.66;100.00;55571.53;5116745;28;20038;-71
2023/09/09 04:17:13;;;;;;;7.43;3.50;;;;;;;-140.66;100.00;55571.53;5115733;28;20023;-72
2023/09/09 04:19:59;;;;;;;31.15;4.60;;;;;;;-140.66;100.00;55571.53;5115580;28;20381;-72
2023/09/09 04:22:45;;;;;;;11.77;4.20;;;;;;;-140.66;100.00;55571.53;5115944;28;20114;-72
2023/09/09 04:25:30;;;;;;;8.20;3.83;;;;;;;-140.66;100.00;55571.53;5114690;28;20092;-71
2023/09/09 04:28:16;;;;;;;5.70;3.53;;;;;;;-140.66;100.00;55571.53;5114840;28;20053;-71
2023/09/09 04:31:03;;;;;;;7.95;3.63;;;;;;;-140.66;100.00;55571.53;5115217;28;20023;-71
2023/09/09 04:33:48;;;;;;;11.70;3.63;;;;;;;-140.66;100.00;55571.53;5114883;28;20038;-71
2023/09/09 04:36:34;;;;;;;8.63;3.60;;;;;;;-140.66;100.00;55571.53;5116220;28;20024;-72
2023/09/09 04:39:20;;;;;;;6.22;3.67;;;;;;;-140.66;100.00;55571.53;5101268;28;20130;-71
2023/09/09 04:42:06;;;;;;;8.00;3.85;;;;;;;-140.66;100.00;55571.53;5115479;28;20454;-71
2023/09/09 04:44:51;;;;;;;8.00;3.55;;;;;;;-140.66;100.00;55571.53;5114126;28;20077;-71
2023/09/09 04:47:37;;;;;;;7.30;4.20;;;;;;;-140.66;100.00;55571.53;5100232;28;20032;-72
2023/09/09 04:50:23;;;;;;;10.57;3.75;;;;;;;-140.66;100.00;55571.53;5115369;28;20023;-72
2023/09/09 04:53:09;;;;;;;9.85;4.22;;;;;;;-140.66;100.00;55571.53;5116385;28;20034;-71
2023/09/09 04:55:54;;;;;;;8.68;3.70;;;;;;;-140.66;100.00;55571.53;5114655;28;20506;-72
2023/09/09 04:58:40;;;;;;;9.15;3.83;;;;;;;-140.66;100.00;55571.53;5115760;28;20453;-70
2023/09/09 05:01:26;;;;;;;7.88;3.65;;;;;;;-140.66;100.00;55571.53;5114496;28;20486;-71
2023/09/09 05:04:12;;;;;;;10.93;4.00;;;;;;;-140.66;100.00;55571.53;5115525;28;20031;-72
2023/09/09 05:06:58;;;;;;;7.70;3.80;;;;;;;-140.66;100.00;55571.53;5113826;28;20424;-72
2023/09/09 05:09:43;;;;;;;7.88;3.92;;;;;;;-140.66;100.00;55571.53;5099784;28;20031;-72
2023/09/09 05:12:31;;;;;;;9.63;4.18;;;;;;;-140.66;100.00;55571.53;5115093;28;20492;-71
2023/09/09 05:15:16;;;;;;;8.35;3.90;;;;;;;-140.66;100.00;55571.53;5114415;28;20027;-71
2023/09/09 05:18:02;;;;;;;6.65;3.72;;;;;;;-140.66;100.00;55571.53;5114195;28;20035;-71
2023/09/09 05:20:48;;;;;;;6.45;3.97;;;;;;;-140.66;100.00;55571.53;5099839;28;20027;-71
2023/09/09 05:23:35;;;;;;;10.23;4.00;;;;;;;-140.66;100.00;55571.53;5115760;28;20023;-72
2023/09/09 05:26:21;;;;;;;12.27;4.30;;;;;;;-140.66;100.00;55571.53;5113878;28;20414;-73
2023/09/09 05:29:07;;;;;;;5.95;3.70;;;;;;;-140.66;100.00;55571.53;5114321;28;20401;-71
2023/09/09 05:31:52;;;;;;;11.40;4.22;;;;;;;-140.66;100.00;55571.53;5114817;28;20035;-72
2023/09/09 05:34:38;;;;;;;9.65;4.38;;;;;;;-140.66;100.00;55571.53;5114416;28;20476;-72
2023/09/09 05:37:26;;;;;;;11.25;5.10;;;;;;;-140.66;100.00;55571.53;5114991;28;20150;-72
2023/09/09 05:40:12;;;;;;;10.30;4.68;;;;;;;-140.66;100.00;55571.53;5114870;28;20027;-72
2023/09/09 05:42:58;;;;;;;12.13;4.28;;;;;;;-140.66;100.00;55571.53;5114402;28;20035;-72
2023/09/09 05:45:43;;;;;;;13.93;4.57;;;;;;;-140.66;100.00;55571.53;5114802;28;20039;-72
2023/09/09 05:48:30;;;;;;;9.07;4.10;;;;;;;-140.66;100.00;55571.53;5114639;28;20025;-72
2023/09/09 05:51:15;;;;;;;9.88;3.80;;;;;;;-140.66;100.00;55571.53;5099615;28;20030;-72
2023/09/09 05:54:01;;;;;;;10.13;4.22;;;;;;;-140.66;100.00;55571.53;5113135;28;20046;-72
2023/09/09 05:56:47;;;;;;;10.13;3.78;;;;;;;-140.66;100.00;55571.53;5112925;28;20024;-71
2023/09/09 05:59:33;;;;;;;11.30;3.95;;;;;;;-140.66;100.00;55571.53;5099551;28;20023;-71
2023/09/09 06:02:19;;;;;;;11.05;3.55;;;;;;;-140.66;100.00;55571.53;5098814;28;20031;-72
2023/09/09 06:05:05;;;;;;;11.75;3.78;;;;;;;-140.66;100.00;55571.53;5107607;28;20094;-71
2023/09/09 06:07:52;;;;;;;20.88;4.30;;;;;;;-140.66;100.00;55571.53;5099118;28;20031;-72
2023/09/09 06:10:38;;;;;;;15.63;4.53;;;;;;;-140.66;100.00;55571.53;5114963;28;20023;-72
2023/09/09 06:13:23;;;;;;;15.57;3.70;;;;;;;-140.66;100.00;55571.53;5098396;28;20423;-72
2023/09/09 06:16:09;;;;;;;9.80;4.03;;;;;;;-140.66;100.00;55571.53;5115187;28;20084;-72
2023/09/09 06:18:55;;;;;;;11.68;3.65;;;;;;;-140.66;100.00;55571.53;5114559;28;20100;-72
2023/09/09 06:21:41;;;;;;;7.40;3.83;;;;;;;-140.66;100.00;55571.53;5112827;28;20028;-71
2023/09/09 06:24:27;;;;;;;6.53;3.75;;;;;;;-140.66;100.00;55571.53;5098818;28;20050;-72
2023/09/09 06:27:13;;;;;;;8.35;3.72;;;;;;;-140.66;100.00;55571.53;5114208;28;20027;-72
2023/09/09 06:29:59;;;;;;;7.50;3.50;;;;;;;-140.66;100.00;55571.53;5112480;28;20024;-72
2023/09/09 06:32:45;;;;;;;6.97;3.65;;;;;;;-140.66;100.00;55571.53;5112300;28;20028;-71
2023/09/09 06:35:30;;;;;;;7.80;4.05;;;;;;;-140.66;100.00;55571.53;5112589;28;20016;-72
2023/09/09 06:38:16;;;;;;;9.35;4.22;;;;;;;-140.66;100.00;55571.53;5113655;28;20363;-71
2023/09/09 06:41:02;;;;;;;12.10;3.92;;;;;;;-140.66;100.00;55571.53;5113572;28;20035;-72
2023/09/09 06:43:49;;;;;;;5.50;3.70;;;;;;;-140.66;100.00;55571.53;5098192;28;20079;-72
2023/09/09 06:46:34;;;;;;;8.23;4.18;;;;;;;-140.66;100.00;55571.53;5113636;28;20081;-71
2023/09/09 06:49:20;;;;;;;7.22;4.35;;;;;;;-140.66;100.00;55571.53;5114403;28;20085;-72
2023/09/09 06:52:06;;;;;;;7.18;3.55;;;;;;;-140.66;100.00;55571.53;5094636;28;20092;-72
2023/09/09 06:54:51;;;;;;;15.65;8.02;;;;;;;-140.66;100.00;55571.53;5113725;28;20023;-72
2023/09/09 06:57:37;;;;;;;9.10;4.45;;;;;;;-140.66;100.00;55571.53;5114238;28;20023;-71
2023/09/09 07:00:23;;;;;;;9.07;3.65;;;;;;;-140.66;100.00;55571.53;5113560;28;20020;-72
2023/09/09 07:03:08;;;;;;;14.15;3.90;;;;;;;-140.66;100.00;55571.53;5114373;28;20115;-72
2023/09/09 07:05:54;;;;;;;12.65;3.83;;;;;;;-140.66;100.00;55571.53;5113151;28;20028;-72
2023/09/09 07:08:40;;;;;;;6.72;3.80;;;;;;;-140.66;100.00;55571.53;5113352;28;20040;-71
2023/09/09 07:11:26;;;;;;;9.10;3.83;;;;;;;-140.66;100.00;55571.53;5113206;28;20097;-72
2023/09/09 07:14:11;;;;;;;5.95;3.53;;;;;;;-140.66;100.00;55571.53;5113074;28;20024;-71
2023/09/09 07:16:57;;;;;;;8.90;3.70;;;;;;;-140.66;100.00;55571.53;5113454;28;20023;-71
2023/09/09 07:19:43;;;;;;;6.72;3.50;;;;;;;-140.66;100.00;55571.53;5113600;28;20043;-73
2023/09/09 07:22:28;;;;;;;6.90;3.60;;;;;;;-140.66;100.00;55571.53;5113166;28;20024;-72
2023/09/09 07:25:14;;;;;;;7.65;3.20;;;;;;;-140.66;100.00;55571.53;5113801;28;20016;-72
2023/09/09 07:28:00;;;;;;;6.53;3.42;;;;;;;-140.66;100.00;55571.53;5113050;28;20094;-73
2023/09/09 07:30:46;;;;;;;8.40;4.03;;;;;;;-140.66;100.00;55571.53;5099267;28;20429;-73
2023/09/09 07:33:32;;;;;;;8.75;4.07;;;;;;;-140.66;100.00;55571.53;5117667;28;20020;-72
2023/09/09 07:36:17;;;;;;;9.88;4.35;;;;;;;-140.66;100.00;55571.53;5117302;28;20412;-73
2023/09/09 07:39:03;;;;;;;8.70;4.15;;;;;;;-140.66;100.00;55571.53;5117104;28;20038;-73
2023/09/09 07:41:49;;;;;;;6.78;3.50;;;;;;;-140.66;100.00;55571.53;5116166;28;20034;-72
2023/09/09 07:44:34;;;;;;;7.80;3.63;;;;;;;-140.66;100.00;55571.53;5115236;28;20062;-72
2023/09/09 07:47:21;;;;;;;6.93;3.47;;;;;;;-140.66;100.00;55571.53;5100818;28;20027;-72
2023/09/09 07:50:07;;;;;;;6.80;2.95;;;;;;;-140.66;100.00;55571.53;5101385;28;20119;-72
2023/09/09 07:52:53;;;;;;;8.32;3.00;;;;;;;-140.66;100.00;55571.53;5115366;28;20034;-71
2023/09/09 07:55:38;;;;;;;8.82;2.95;;;;;;;-140.66;100.00;55571.53;5115238;28;20377;-72
2023/09/09 07:58:25;;;;;;;4.63;2.85;;;;;;;-140.66;100.00;55571.53;5115461;28;20024;-73
2023/09/09 08:01:12;;;;;;;6.25;3.30;;;;;;;-140.66;100.00;55571.53;5117072;28;20023;-73
2023/09/09 08:03:58;;;;;;;6.85;3.03;;;;;;;-140.66;100.00;55571.53;5115638;28;20035;-73
2023/09/09 08:06:46;;;;;;;7.93;2.90;;;;;;;-140.66;100.00;55571.53;5116464;28;20409;-73
2023/09/09 08:09:32;;;;;;;9.40;3.28;;;;;;;-140.66;100.00;55571.53;5116343;28;20058;-74
2023/09/09 08:12:18;;;;;;;6.78;3.08;;;;;;;-140.66;100.00;55571.53;5114531;28;20031;-72
2023/09/09 08:15:09;;;;;;;6.00;3.17;;;;;;;-140.66;100.00;55571.53;5116040;28;20031;-72
2023/09/09 08:17:55;;;;;;;12.20;3.65;;;;;;;-140.66;100.00;55571.53;5115694;28;20106;-73
2023/09/09 08:20:41;;;;;;;7.85;3.22;;;;;;;-140.66;100.00;55571.53;5115561;28;20096;-72
2023/09/09 08:23:27;;;;;;;6.95;3.45;;;;;;;-140.66;100.00;55571.53;5114971;28;20062;-72
2023/09/09 08:26:13;;;;;;;4.43;2.70;;;;;;;-140.66;100.00;55571.53;5116128;28;20074;-72
2023/09/09 08:28:58;;;;;;;8.02;3.05;;;;;;;-140.66;100.00;55571.53;5115019;28;20120;-73
2023/09/09 08:31:47;;;;;;;5.05;2.67;;;;;;;-140.66;100.00;55571.53;5101687;28;20024;-72
2023/09/09 08:34:33;;;;;;;9.95;2.67;;;;;;;-140.66;100.00;55571.53;5114984;28;20334;-72
2023/09/09 08:37:18;;;;;;;9.70;3.35;;;;;;;-140.66;100.00;55571.53;5114664;28;20097;-74
2023/09/09 08:40:06;;;;;;;10.48;2.95;;;;;;;-140.66;100.00;55571.53;5115798;28;20020;-74
2023/09/09 08:43:04;;;;;;;5.80;2.90;;;;;;;-140.66;100.00;55571.53;5099823;28;20028;-72
2023/09/09 08:45:58;;;;;;;6.22;2.92;;;;;;;-140.66;100.00;55571.53;5114886;28;20097;-72
2023/09/09 08:48:45;;;;;;;4.63;2.72;;;;;;;-140.66;100.00;55571.53;5115445;28;20031;-72
2023/09/09 08:51:38;;;;;;;8.38;2.95;;;;;;;-140.66;100.00;55571.53;5114049;28;20031;-72
2023/09/09 08:54:26;;;;;;;5.22;2.80;;;;;;;-140.66;100.00;55571.53;5099499;28;20050;-73
2023/09/09 08:57:12;;;;;;;9.55;2.90;;;;;;;-140.66;100.00;55571.53;5115194;28;20019;-73
2023/09/09 09:00:01;;;;;;;9.15;2.85;;;;;;;-140.66;100.00;55571.53;5114304;28;20062;-72
2023/09/09 09:02:48;;;;;;;10.60;2.72;;;;;;;-140.66;100.00;55571.53;5100016;28;20031;-73
2023/09/09 09:05:36;;;;;;;18.40;2.92;;;;;;;-140.66;100.00;55571.53;5114326;28;20338;-72
2023/09/09 09:08:22;;;;;;;6.05;2.60;;;;;;;-140.66;100.00;55571.53;5114770;28;20088;-73
2023/09/09 09:11:11;;;;;;;3.70;2.58;;;;;;;-140.66;100.00;55571.53;5113737;28;20028;-73
2023/09/09 09:14:07;;;;;;;4.32;2.08;;;;;;;-140.66;100.00;55571.53;5115383;28;20037;-72
2023/09/09 09:16:54;;;;;;;7.88;2.40;;;;;;;-140.66;100.00;55571.53;5115081;28;20110;-71
2023/09/09 09:19:39;;;;;;;5.35;2.50;;;;;;;-140.66;100.00;55571.53;5113601;28;20069;-73
2023/09/09 09:22:25;;;;;;;5.95;2.30;;;;;;;-140.66;100.00;55571.53;5113559;28;20024;-72
2023/09/09 09:25:11;;;;;;;8.18;2.58;;;;;;;-140.66;100.00;55571.53;5114168;28;20023;-73
2023/09/09 09:27:57;;;;;;;8.55;2.20;;;;;;;-140.66;100.00;55571.53;5113490;28;20024;-74
2023/09/09 09:30:43;;;;;;;6.53;2.20;;;;;;;-140.66;100.00;55571.53;5113939;28;20036;-73
2023/09/09 09:33:30;;;;;;;5.35;2.38;;;;;;;-140.66;100.00;55571.53;5114031;28;20115;-73
2023/09/09 09:36:18;;;;;;;6.28;2.05;;;;;;;-140.66;100.00;55571.53;5114925;28;20020;-73
2023/09/09 09:39:10;;;;;;;7.50;2.40;;;;;;;-140.66;100.00;55571.53;5113900;28;20110;-75
2023/09/09 09:41:58;;;;;;;4.07;2.10;;;;;;;-140.66;100.00;55571.53;5114101;28;20058;-75
2023/09/09 09:44:44;;;;;;;6.22;2.50;;;;;;;-140.66;100.00;55571.53;5113382;28;20052;-76
2023/09/09 09:47:42;;;;;;;5.65;2.40;;;;;;;-140.66;100.00;55571.53;5113755;28;20031;-73
2023/09/09 09:50:30;;;;;;;5.35;2.20;;;;;;;-140.66;100.00;55571.53;5099874;28;20407;-73
2023/09/09 09:53:16;;;;;;;6.35;2.75;;;;;;;-140.66;100.00;55571.53;5114234;28;20353;-73
2023/09/09 09:56:03;;;;;;;5.63;2.22;;;;;;;-140.66;100.00;55571.53;5098154;28;20030;-74
2023/09/09 09:58:50;;;;;;;5.05;2.20;;;;;;;-140.66;100.00;55571.53;5114591;28;20030;-73
2023/09/09 10:01:36;;;;;;;4.30;2.42;;;;;;;-140.66;100.00;55571.53;5115231;28;20369;-73
2023/09/09 10:04:25;;;;;;;3.35;2.50;;;;;;;-140.66;100.00;55571.53;5098758;28;20020;-73
2023/09/09 10:07:16;;;;;;;5.18;2.90;;;;;;;-140.66;100.00;55571.53;5114314;28;20042;-74
2023/09/09 10:10:07;;;;;;;9.35;2.58;;;;;;;-140.66;100.00;55571.53;5099087;28;20148;-77
2023/09/09 10:13:11;;;;;;;18.25;5.05;;;;;;;-140.66;100.00;55571.53;5114265;28;20027;-72
2023/09/09 10:15:57;;;;;;;12.85;2.90;;;;;;;-140.66;100.00;55571.53;5112436;28;20019;-72
2023/09/09 10:18:44;;;;;;;8.10;2.58;;;;;;;-140.66;100.00;55571.53;5114956;28;20031;-72
2023/09/09 10:21:33;;;;;;;7.63;2.70;;;;;;;-140.66;100.00;55571.53;5115176;28;20346;-72
2023/09/09 10:24:19;;;;;;;9.18;2.58;;;;;;;-140.66;100.00;55571.53;5113934;28;20066;-73
2023/09/09 10:27:06;;;;;;;4.35;2.38;;;;;;;-140.66;100.00;55571.53;5114607;28;20016;-72
2023/09/09 10:29:55;;;;;;;9.52;3.00;;;;;;;-140.66;100.00;55571.53;5100631;28;20020;-72
2023/09/09 10:32:42;;;;;;;7.10;2.75;;;;;;;-140.66;100.00;55571.53;5115631;28;20035;-72
2023/09/09 10:35:28;;;;;;;6.38;2.92;;;;;;;-140.66;100.00;55571.53;5113641;28;20085;-73
2023/09/09 10:38:15;;;;;;;5.20;2.30;;;;;;;-140.66;100.00;55571.53;5114290;28;20078;-72
2023/09/09 10:41:03;;;;;;;6.00;2.60;;;;;;;-140.66;100.00;55571.53;5098987;28;20449;-73
2023/09/09 10:43:48;;;;;;;6.10;2.33;;;;;;;-140.66;100.00;55571.53;5099070;28;20376;-72
2023/09/09 10:46:37;;;;;;;8.95;2.58;;;;;;;-140.66;100.00;55571.53;5099773;28;20096;-71
2023/09/09 10:49:27;;;;;;;5.88;2.72;;;;;;;-140.66;100.00;55571.53;5115009;28;20019;-71
2023/09/09 10:52:32;;;;;;;10.73;2.60;;;;;;;-140.66;100.00;55571.53;5121716;28;20027;-73
2023/09/09 10:55:27;;;;;;;5.88;2.67;;;;;;;-140.66;100.00;55571.53;5116379;28;20047;-71
2023/09/09 10:58:18;;;;;;;7.60;2.75;;;;;;;-140.66;100.00;55571.53;5116755;28;20023;-72
2023/09/09 11:01:07;;;;;;;7.93;2.70;;;;;;;-140.66;100.00;55571.53;5116779;28;20077;-72
2023/09/09 11:03:53;;;;;;;5.45;2.60;;;;;;;-140.66;100.00;55571.53;5115387;28;20028;-72
2023/09/09 11:06:58;;;;;;;5.43;2.58;;;;;;;-140.66;100.00;55571.53;5115690;28;20028;-73
2023/09/09 11:09:52;;;;;;;3.92;2.40;;;;;;;-140.66;100.00;55571.53;5107039;28;20035;-71
2023/09/09 11:12:49;;;;;;;5.60;2.65;;;;;;;-140.66;100.00;55571.53;5121180;28;20353;-72
2023/09/09 11:15:51;;;;;;;8.82;2.67;;;;;;;-140.66;100.00;55571.53;5120208;28;20100;-73
2023/09/09 11:18:37;;;;;;;7.28;2.50;;;;;;;-140.66;100.00;55571.53;5117649;28;20070;-72
2023/09/09 11:21:23;;;;;;;6.18;2.67;;;;;;;-140.66;100.00;55571.53;5116959;28;20348;-72
2023/09/09 11:24:09;;;;;;;8.02;2.90;;;;;;;-140.66;100.00;55571.53;5116690;28;20193;-73
2023/09/09 11:26:58;;;;;;;8.95;2.65;;;;;;;-140.66;100.00;55571.53;5116980;28;20054;-72
2023/09/09 11:29:51;;;;;;;6.43;2.78;;;;;;;-140.66;100.00;55571.53;5116413;28;20432;-73
2023/09/09 11:32:37;;;;;;;8.90;3.03;;;;;;;-140.66;100.00;55571.53;5116369;28;20449;-73
2023/09/09 11:35:23;;;;;;;6.18;2.40;;;;;;;-140.66;100.00;55571.53;5102742;28;20024;-72
2023/09/09 11:38:08;;;;;;;8.68;2.33;;;;;;;-140.66;100.00;55571.53;5102229;28;20024;-73
2023/09/09 11:40:55;;;;;;;4.50;2.45;;;;;;;-140.66;100.00;55571.53;5115554;28;20096;-72
2023/09/09 11:43:41;;;;;;;3.10;2.45;;;;;;;-140.66;100.00;55571.53;5101091;28;20358;-73
2023/09/09 11:46:30;;;;;;;5.35;2.40;;;;;;;-140.66;100.00;55571.53;5117097;28;20361;-72
2023/09/09 11:49:17;;;;;;;5.10;2.40;;;;;;;-140.66;100.00;55571.53;5115388;28;20031;-73
2023/09/09 11:52:04;;;;;;;6.68;2.35;;;;;;;-140.66;100.00;55571.53;5117669;28;20052;-73
2023/09/09 11:54:50;;;;;;;9.30;2.58;;;;;;;-140.66;100.00;55571.53;5118124;28;20546;-72
2023/09/09 11:57:36;;;;;;;3.20;2.22;;;;;;;-140.66;100.00;55571.53;5117023;28;20027;-73
2023/09/09 12:00:22;;;;;;;3.22;2.63;;;;;;;-140.66;100.00;55571.53;5119105;28;20023;-72
2023/09/09 12:03:07;;;;;;;4.35;2.10;;;;;;;-140.66;100.00;55571.53;5118851;28;20027;-72
2023/09/09 12:05:53;;;;;;;4.15;2.30;;;;;;;-140.66;100.00;55571.53;5122369;28;20338;-72
2023/09/09 12:08:40;;;;;;;6.68;2.33;;;;;;;-140.66;100.00;55571.53;5119187;28;20057;-72
2023/09/09 12:11:26;;;;;;;10.80;2.92;;;;;;;-140.66;100.00;55571.53;5117579;28;20084;-71
2023/09/09 12:14:14;;;;;;;5.07;2.50;;;;;;;-140.66;100.00;55571.53;5102159;28;20028;-72
2023/09/09 12:16:59;;;;;;;6.57;2.60;;;;;;;-140.66;100.00;55571.53;5116115;28;20083;-73
2023/09/09 12:19:59;;;;;;;8.30;2.50;;;;;;;-140.66;100.00;55571.53;5118246;28;20016;-70
2023/09/09 12:22:52;;;;;;;8.20;2.63;;;;;;;-140.66;100.00;55571.53;5118463;28;20099;-72
2023/09/09 12:25:37;;;;;;;4.43;2.58;;;;;;;-140.66;100.00;55571.53;5116904;28;20457;-72
2023/09/09 12:28:23;;;;;;;4.93;2.60;;;;;;;-140.66;100.00;55571.53;5116126;28;20404;-73
2023/09/09 12:31:10;;;;;;;6.45;2.50;;;;;;;-140.66;100.00;55571.53;5117463;28;20106;-72
2023/09/09 12:33:56;;;;;;;6.53;2.53;;;;;;;-140.66;100.00;55571.53;5119138;28;20057;-72
2023/09/09 12:36:42;;;;;;;5.65;2.50;;;;;;;-140.66;100.00;55571.53;5104480;28;20063;-72